»·PEaware :: UAL1399 KMFR-KPDX

UAL1399 :: KMFR-KPDX

FLIGHT INFORMATION

Flight Status: Arrived
Operator:
United Airlines
More flights by this operator :: More flights under this callsign
Pilot: David C. (16084)
Aircraft: AIRBUS A320
(A320)
More flights by this aircraft type
Origin: KMFR Rogue Valley Intl-Medford
United States
Destination: KPDX Portland Intl
United States
More flights between these airports :: More routes between these airports
Route: +JKSN1 OED MOXEE TMBRS2
File this flight plan on PilotEdge
Remarks:
Altitude:
(Current/Filed)
29,000ft
Speed:
(Current/Filed)
469kts
Departed: 08-Jan-19 05:52 PM
Arrived: 08-Jan-19 07:17 PM
Distance/Time
Traveled:
193nm/1:25
Distance/Time
To Go:
Arrived

Flight Plot

Page will automatically refresh every two minutes.

Flight plan parsing failed; only flown route is shown


Map Options




Map Legend


Flown Route
Filed Route
Departure Airport
Arrival Airport
Navaid (VOR, NDB)
Fix

Horizontal Profiles

Position Reports

Time Latitude Longitude Heading Altitude Ground
Speed
08-Jan-19 17:23 42.368983 -122.873493 248 1342ft 0kts
08-Jan-19 17:24 42.368983 -122.873493 248 1342ft 0kts
08-Jan-19 17:25 42.368983 -122.873493 248 1342ft 0kts
08-Jan-19 17:26 42.368983 -122.873493 248 1342ft 0kts
08-Jan-19 17:27 42.368983 -122.873493 248 1342ft 0kts
08-Jan-19 17:28 42.368983 -122.873493 248 1342ft 0kts
08-Jan-19 17:28 42.368983 -122.873493 248 1342ft 0kts
08-Jan-19 17:30 42.368983 -122.873493 248 1342ft 0kts
08-Jan-19 17:30 42.368983 -122.873493 248 1342ft 0kts
08-Jan-19 17:32 42.368983 -122.873493 248 1342ft 0kts
08-Jan-19 17:32 42.368983 -122.873493 248 1342ft 0kts
08-Jan-19 17:33 42.368983 -122.873493 248 1342ft 0kts
08-Jan-19 17:35 42.368983 -122.873493 248 1342ft 0kts
08-Jan-19 17:35 42.368983 -122.873493 248 1342ft 0kts
08-Jan-19 17:36 42.368983 -122.873493 248 1342ft 0kts
08-Jan-19 17:37 42.368983 -122.873493 248 1342ft 0kts
08-Jan-19 17:38 42.368983 -122.873493 248 1342ft 0kts
08-Jan-19 17:39 42.369089 -122.872985 275 1342ft 2kts
08-Jan-19 17:40 42.368776 -122.872432 344 1342ft 1kts
08-Jan-19 17:41 42.368735 -122.872415 340 1342ft 0kts
08-Jan-19 17:42 42.368735 -122.872415 340 1342ft 0kts
08-Jan-19 17:43 42.368735 -122.872415 340 1342ft 0kts
08-Jan-19 17:44 42.368736 -122.872415 340 1342ft 0kts
08-Jan-19 17:45 42.370683 -122.872607 340 1342ft 10kts
08-Jan-19 17:46 42.375275 -122.875055 338 1342ft 20kts
08-Jan-19 17:47 42.380431 -122.877771 339 1342ft 21kts
08-Jan-19 17:48 42.385508 -122.880334 11 1342ft 6kts
08-Jan-19 17:49 42.385577 -122.880305 20 1342ft 0kts
08-Jan-19 17:50 42.385776 -122.880142 40 1342ft 8kts
08-Jan-19 17:51 42.379024 -122.875393 158 1342ft 122kts
08-Jan-19 17:52 42.334576 -122.872789 230 3491ft 206kts
08-Jan-19 17:53 42.350950 -122.929528 334 6188ft 241kts
08-Jan-19 18:20 42.368983 -122.873493 248 1342ft 0kts
08-Jan-19 18:21 42.368983 -122.873493 248 1342ft 0kts
08-Jan-19 18:22 42.368983 -122.873493 248 1342ft 0kts
08-Jan-19 18:23 42.368983 -122.873493 248 1342ft 0kts
08-Jan-19 18:24 42.368983 -122.873493 248 1342ft 0kts
08-Jan-19 18:25 42.368983 -122.873493 248 1342ft 0kts
08-Jan-19 18:26 42.369088 -122.872904 283 1342ft 2kts
08-Jan-19 18:27 42.368762 -122.872431 342 1342ft 1kts
08-Jan-19 18:28 42.368743 -122.872423 341 1342ft 0kts
08-Jan-19 18:29 42.368743 -122.872423 341 1342ft 0kts
08-Jan-19 18:30 42.368743 -122.872423 341 1342ft 0kts
08-Jan-19 18:31 42.368743 -122.872423 341 1342ft 0kts
08-Jan-19 18:32 42.369950 -122.872468 357 1342ft 20kts
08-Jan-19 18:33 42.376891 -122.875853 339 1342ft 28kts
08-Jan-19 18:34 42.384145 -122.879713 337 1342ft 26kts
08-Jan-19 18:35 42.386008 -122.879707 67 1342ft 11kts
08-Jan-19 18:36 42.366246 -122.868636 157 1704ft 170kts
08-Jan-19 18:37 42.325436 -122.895410 267 4386ft 228kts
08-Jan-19 18:38 42.373712 -122.952861 343 6835ft 278kts
08-Jan-19 18:39 42.447507 -122.932481 29 9577ft 301kts
08-Jan-19 18:40 42.535645 -122.922423 350 10999ft 349kts
08-Jan-19 18:41 42.634209 -122.941233 350 11299ft 404kts
08-Jan-19 18:42 42.740997 -122.961085 349 14561ft 394kts
08-Jan-19 18:43 42.846042 -122.980704 349 17533ft 394kts
08-Jan-19 18:44 42.955449 -123.001058 348 19926ft 406kts
08-Jan-19 18:45 43.068473 -122.991249 8 22129ft 420kts
08-Jan-19 18:46 43.181531 -122.966716 8 23653ft 428kts
08-Jan-19 18:47 43.302731 -122.940319 8 23813ft 471kts
08-Jan-19 18:48 43.436982 -122.910942 8 23809ft 515kts
08-Jan-19 18:49 43.581238 -122.879324 8 23821ft 536kts
08-Jan-19 18:50 43.725527 -122.847580 8 23840ft 536kts
08-Jan-19 18:51 43.870775 -122.815399 8 23839ft 536kts
08-Jan-19 18:52 44.016059 -122.783044 8 23838ft 536kts
08-Jan-19 18:53 44.147957 -122.754230 5 23646ft 533kts
08-Jan-19 18:54 44.291371 -122.739283 2 21148ft 515kts
08-Jan-19 18:55 44.428528 -122.725762 2 19693ft 472kts
08-Jan-19 18:56 44.550169 -122.713732 1 18955ft 422kts
08-Jan-19 18:57 44.663195 -122.702395 1 17448ft 403kts
08-Jan-19 18:58 44.772885 -122.691306 1 15698ft 393kts
08-Jan-19 18:59 44.878705 -122.680640 1 13988ft 385kts
08-Jan-19 19:00 44.981080 -122.670325 1 12992ft 356kts
08-Jan-19 19:01 45.077924 -122.660490 359 11576ft 348kts
08-Jan-19 19:02 45.167632 -122.651320 357 10480ft 329kts
08-Jan-19 19:03 45.255141 -122.646630 334 9328ft 295kts
08-Jan-19 19:04 45.325457 -122.684536 334 8032ft 244kts
08-Jan-19 19:05 45.384130 -122.716808 340 7034ft 227kts
08-Jan-19 19:06 45.440268 -122.747685 341 5996ft 214kts
08-Jan-19 19:07 45.493535 -122.777002 341 5023ft 205kts
08-Jan-19 19:08 45.546461 -122.803784 347 4175ft 202kts
08-Jan-19 19:09 45.597503 -122.824590 347 3059ft 180kts
08-Jan-19 19:10 45.642676 -122.813780 46 2046ft 171kts
08-Jan-19 19:11 45.654355 -122.753075 107 2011ft 165kts
08-Jan-19 19:12 45.635655 -122.701623 117 1728ft 128kts
08-Jan-19 19:13 45.618982 -122.658187 116 1086ft 128kts
08-Jan-19 19:14 45.602053 -122.614354 116 378ft 127kts
08-Jan-19 19:15 45.588742 -122.579919 118 38ft 50kts
08-Jan-19 19:16 45.586794 -122.578307 299 38ft 16kts
08-Jan-19 19:17 45.589160 -122.584396 299 38ft 20kts
08-Jan-19 19:18 45.590639 -122.590434 299 38ft 14kts
08-Jan-19 19:19 45.590231 -122.591576 208 38ft 0kts
08-Jan-19 19:20 45.590231 -122.591576 208 38ft 0kts

Navigation Log

Ident Type
Flight plan parsing failed, navigation log unavailable